sensor_id;sensor_type;location;lat;lon;timestamp;pressure;altitude;pressure_sealevel;temperature;humidity
62849;BME280;48941;49.516;8.286;2022-10-26T00:00:31;100365.00;;;11.89;100.00
62849;BME280;48941;49.516;8.286;2022-10-26T00:02:59;100367.53;;;11.91;100.00
62849;BME280;48941;49.516;8.286;2022-10-26T00:05:27;100369.38;;;11.90;100.00
62849;BME280;48941;49.516;8.286;2022-10-26T00:07:56;100372.59;;;11.94;100.00
62849;BME280;48941;49.516;8.286;2022-10-26T00:10:24;100379.50;;;11.97;100.00
62849;BME280;48941;49.516;8.286;2022-10-26T00:12:56;100361.78;;;11.95;100.00
62849;BME280;48941;49.516;8.286;2022-10-26T00:15:23;100351.94;;;11.96;100.00
62849;BME280;48941;49.516;8.286;2022-10-26T00:17:51;100342.28;;;11.95;100.00
62849;BME280;48941;49.516;8.286;2022-10-26T00:20:19;100370.38;;;11.99;100.00
62849;BME280;48941;49.516;8.286;2022-10-26T00:22:47;100383.84;;;11.98;100.00
62849;BME280;48941;49.516;8.286;2022-10-26T00:25:16;100389.91;;;12.00;100.00
62849;BME280;48941;49.516;8.286;2022-10-26T00:27:44;100382.72;;;12.00;100.00
62849;BME280;48941;49.516;8.286;2022-10-26T00:30:12;100384.44;;;12.01;100.00
62849;BME280;48941;49.516;8.286;2022-10-26T00:32:39;100376.31;;;12.03;100.00
62849;BME280;48941;49.516;8.286;2022-10-26T00:35:08;100386.28;;;12.01;100.00
62849;BME280;48941;49.516;8.286;2022-10-26T00:37:54;100396.09;;;12.00;100.00
62849;BME280;48941;49.516;8.286;2022-10-26T00:40:27;100391.75;;;11.99;100.00
62849;BME280;48941;49.516;8.286;2022-10-26T00:42:55;100389.91;;;12.00;100.00
62849;BME280;48941;49.516;8.286;2022-10-26T00:45:24;100389.19;;;11.98;100.00
62849;BME280;48941;49.516;8.286;2022-10-26T00:47:56;100379.34;;;11.98;100.00
62849;BME280;48941;49.516;8.286;2022-10-26T00:50:28;100385.94;;;11.94;100.00
62849;BME280;48941;49.516;8.286;2022-10-26T00:52:58;100383.00;;;11.97;100.00
62849;BME280;48941;49.516;8.286;2022-10-26T00:55:31;100391.63;;;12.01;100.00
62849;BME280;48941;49.516;8.286;2022-10-26T00:58:02;100397.66;;;12.03;100.00
62849;BME280;48941;49.516;8.286;2022-10-26T01:00:32;100396.81;;;12.02;100.00
62849;BME280;48941;49.516;8.286;2022-10-26T01:03:03;100396.09;;;12.00;100.00
62849;BME280;48941;49.516;8.286;2022-10-26T01:05:33;100399.63;;;12.01;100.00
62849;BME280;48941;49.516;8.286;2022-10-26T01:08:03;100390.75;;;12.00;100.00
62849;BME280;48941;49.516;8.286;2022-10-26T01:10:33;100393.28;;;12.02;100.00
62849;BME280;48941;49.516;8.286;2022-10-26T01:13:01;100386.28;;;12.01;100.00
62849;BME280;48941;49.516;8.286;2022-10-26T01:15:43;100377.28;;;12.02;100.00
62849;BME280;48941;49.516;8.286;2022-10-26T01:18:20;100365.28;;;11.96;100.00
62849;BME280;48941;49.516;8.286;2022-10-26T01:24:20;100355.91;;;12.02;100.00
62849;BME280;48941;49.516;8.286;2022-10-26T01:27:06;100353.53;;;11.99;100.00
62849;BME280;48941;49.516;8.286;2022-10-26T01:29:51;100357.03;;;11.99;100.00
62849;BME280;48941;49.516;8.286;2022-10-26T01:32:26;100361.13;;;12.03;100.00
62849;BME280;48941;49.516;8.286;2022-10-26T01:35:04;100351.28;;;12.04;100.00
62849;BME280;48941;49.516;8.286;2022-10-26T01:37:36;100344.28;;;12.03;100.00
62849;BME280;48941;49.516;8.286;2022-10-26T01:40:10;100346.09;;;12.02;100.00
62849;BME280;48941;49.516;8.286;2022-10-26T01:42:43;100344.28;;;12.03;100.00
62849;BME280;48941;49.516;8.286;2022-10-26T01:45:15;100347.78;;;12.03;100.00
62849;BME280;48941;49.516;8.286;2022-10-26T01:47:46;100346.66;;;12.06;100.00
62849;BME280;48941;49.516;8.286;2022-10-26T01:50:16;100347.53;;;12.06;100.00
62849;BME280;48941;49.516;8.286;2022-10-26T01:52:48;100343.16;;;12.05;100.00
62849;BME280;48941;49.516;8.286;2022-10-26T01:55:38;100349.06;;;12.09;100.00
62849;BME280;48941;49.516;8.286;2022-10-26T01:58:14;100356.81;;;12.12;100.00
62849;BME280;48941;49.516;8.286;2022-10-26T02:00:56;100353.28;;;12.11;100.00
62849;BME280;48941;49.516;8.286;2022-10-26T02:03:32;100351.75;;;12.09;100.00
62849;BME280;48941;49.516;8.286;2022-10-26T02:06:10;100351.63;;;12.10;100.00
62849;BME280;48941;49.516;8.286;2022-10-26T02:08:55;100348.25;;;12.08;100.00
62849;BME280;48941;49.516;8.286;2022-10-26T02:11:35;100345.13;;;12.03;100.00
62849;BME280;48941;49.516;8.286;2022-10-26T02:14:11;100334.56;;;12.02;100.00
62849;BME280;48941;49.516;8.286;2022-10-26T02:16:52;100338.66;;;12.06;100.00
62849;BME280;48941;49.516;8.286;2022-10-26T02:19:31;100341.19;;;12.07;100.00
62849;BME280;48941;49.516;8.286;2022-10-26T02:22:03;100334.44;;;12.03;100.00
62849;BME280;48941;49.516;8.286;2022-10-26T02:24:33;100327.25;;;12.04;100.00
62849;BME280;48941;49.516;8.286;2022-10-26T02:27:07;100328.25;;;12.03;100.00
62849;BME280;48941;49.516;8.286;2022-10-26T02:29:39;100326.44;;;12.03;100.00
62849;BME280;48941;49.516;8.286;2022-10-26T02:32:08;100333.31;;;12.06;100.00
62849;BME280;48941;49.516;8.286;2022-10-26T02:34:41;100332.06;;;12.10;100.00
62849;BME280;48941;49.516;8.286;2022-10-26T02:37:12;100329.28;;;12.11;100.00
62849;BME280;48941;49.516;8.286;2022-10-26T02:39:44;100328.44;;;12.11;100.00
62849;BME280;48941;49.516;8.286;2022-10-26T02:42:14;100338.00;;;12.13;100.00
62849;BME280;48941;49.516;8.286;2022-10-26T02:44:46;100349.50;;;12.14;100.00
62849;BME280;48941;49.516;8.286;2022-10-26T02:47:15;100347.13;;;12.11;100.00
62849;BME280;48941;49.516;8.286;2022-10-26T02:49:44;100351.47;;;12.12;100.00
62849;BME280;48941;49.516;8.286;2022-10-26T02:52:16;100330.25;;;12.10;100.00
62849;BME280;48941;49.516;8.286;2022-10-26T02:54:53;100338.53;;;12.07;100.00
62849;BME280;48941;49.516;8.286;2022-10-26T02:57:26;100333.19;;;12.07;100.00
62849;BME280;48941;49.516;8.286;2022-10-26T02:59:57;100349.91;;;12.09;100.00
62849;BME280;48941;49.516;8.286;2022-10-26T03:02:25;100361.44;;;12.10;100.00
62849;BME280;48941;49.516;8.286;2022-10-26T03:05:05;100358.63;;;12.11;100.00
62849;BME280;48941;49.516;8.286;2022-10-26T03:07:34;100343.63;;;12.10;100.00
62849;BME280;48941;49.516;8.286;2022-10-26T03:10:02;100339.66;;;12.05;100.00
62849;BME280;48941;49.516;8.286;2022-10-26T03:12:30;100346.66;;;12.06;100.00
62849;BME280;48941;49.516;8.286;2022-10-26T03:14:58;100353.41;;;12.10;100.00
62849;BME280;48941;49.516;8.286;2022-10-26T03:17:26;100369.44;;;12.10;100.00
62849;BME280;48941;49.516;8.286;2022-10-26T03:19:54;100378.16;;;12.12;100.00
62849;BME280;48941;49.516;8.286;2022-10-26T03:22:23;100368.91;;;12.16;100.00
62849;BME280;48941;49.516;8.286;2022-10-26T03:24:51;100367.81;;;12.19;100.00
62849;BME280;48941;49.516;8.286;2022-10-26T03:27:19;100363.31;;;12.19;100.00
62849;BME280;48941;49.516;8.286;2022-10-26T03:29:46;100360.75;;;12.18;100.00
62849;BME280;48941;49.516;8.286;2022-10-26T03:32:14;100357.38;;;12.15;100.00
62849;BME280;48941;49.516;8.286;2022-10-26T03:34:42;100358.50;;;12.13;100.00
62849;BME280;48941;49.516;8.286;2022-10-26T03:37:10;100359.94;;;12.17;100.00
62849;BME280;48941;49.516;8.286;2022-10-26T03:39:39;100355.19;;;12.21;100.00
62849;BME280;48941;49.516;8.286;2022-10-26T03:42:07;100350.53;;;12.23;100.00
62849;BME280;48941;49.516;8.286;2022-10-26T03:44:35;100340.69;;;12.23;100.00
62849;BME280;48941;49.516;8.286;2022-10-26T03:47:03;100332.81;;;12.22;100.00
62849;BME280;48941;49.516;8.286;2022-10-26T03:49:31;100323.13;;;12.21;100.00
62849;BME280;48941;49.516;8.286;2022-10-26T03:51:58;100329.31;;;12.21;100.00
62849;BME280;48941;49.516;8.286;2022-10-26T03:54:26;100329.31;;;12.21;100.00
62849;BME280;48941;49.516;8.286;2022-10-26T03:56:55;100335.34;;;12.23;100.00
62849;BME280;48941;49.516;8.286;2022-10-26T03:59:23;100331.41;;;12.18;100.00
62849;BME280;48941;49.516;8.286;2022-10-26T04:01:51;100326.75;;;12.20;100.00
62849;BME280;48941;49.516;8.286;2022-10-26T04:04:23;100342.66;;;12.21;100.00
62849;BME280;48941;49.516;8.286;2022-10-26T04:06:51;100335.66;;;12.20;100.00
62849;BME280;48941;49.516;8.286;2022-10-26T04:09:19;100330.56;;;12.17;100.00
62849;BME280;48941;49.516;8.286;2022-10-26T04:11:47;100335.31;;;12.13;100.00
62849;BME280;48941;49.516;8.286;2022-10-26T04:14:16;100340.41;;;12.17;100.00
62849;BME280;48941;49.516;8.286;2022-10-26T04:16:44;100335.78;;;12.19;100.00
62849;BME280;48941;49.516;8.286;2022-10-26T04:19:11;100333.09;;;12.19;100.00
62849;BME280;48941;49.516;8.286;2022-10-26T04:21:39;100330.31;;;12.20;100.00
62849;BME280;48941;49.516;8.286;2022-10-26T04:24:08;100333.53;;;12.24;100.00
62849;BME280;48941;49.516;8.286;2022-10-26T04:26:36;100323.00;;;12.22;100.00
62849;BME280;48941;49.516;8.286;2022-10-26T04:29:04;100324.81;;;12.22;100.00
62849;BME280;48941;49.516;8.286;2022-10-26T04:31:35;100326.63;;;12.21;100.00
62849;BME280;48941;49.516;8.286;2022-10-26T04:34:03;100331.56;;;12.26;100.00
62849;BME280;48941;49.516;8.286;2022-10-26T04:36:30;100336.91;;;12.26;100.00
62849;BME280;48941;49.516;8.286;2022-10-26T04:39:00;100341.41;;;12.25;100.00
62849;BME280;48941;49.516;8.286;2022-10-26T04:41:27;100347.59;;;12.26;100.00
62849;BME280;48941;49.516;8.286;2022-10-26T04:43:55;100344.91;;;12.26;100.00
62849;BME280;48941;49.516;8.286;2022-10-26T04:46:23;100336.78;;;12.27;100.00
62849;BME280;48941;49.516;8.286;2022-10-26T04:48:52;100350.25;;;12.26;100.00
62849;BME280;48941;49.516;8.286;2022-10-26T04:51:20;100345.63;;;12.28;100.00
62849;BME280;48941;49.516;8.286;2022-10-26T04:53:48;100341.16;;;12.28;100.00
62849;BME280;48941;49.516;8.286;2022-10-26T04:56:16;100341.16;;;12.28;100.00
62849;BME280;48941;49.516;8.286;2022-10-26T04:58:43;100332.03;;;12.31;100.00
62849;BME280;48941;49.516;8.286;2022-10-26T05:01:11;100329.59;;;12.28;100.00
62849;BME280;48941;49.516;8.286;2022-10-26T05:03:39;100326.94;;;12.28;100.00
62849;BME280;48941;49.516;8.286;2022-10-26T05:06:08;100331.31;;;12.29;100.00
62849;BME280;48941;49.516;8.286;2022-10-26T05:08:36;100326.69;;;12.31;100.00
62849;BME280;48941;49.516;8.286;2022-10-26T05:11:04;100323.28;;;12.29;100.00
62849;BME280;48941;49.516;8.286;2022-10-26T05:13:32;100329.34;;;12.31;100.00
62849;BME280;48941;49.516;8.286;2022-10-26T05:16:00;100330.75;;;12.35;100.00
62849;BME280;48941;49.516;8.286;2022-10-26T05:18:27;100332.31;;;12.38;100.00
62849;BME280;48941;49.516;8.286;2022-10-26T05:20:55;100345.41;;;12.41;100.00
62849;BME280;48941;49.516;8.286;2022-10-26T05:23:24;100353.41;;;12.41;100.00
62849;BME280;48941;49.516;8.286;2022-10-26T05:25:54;100349.63;;;12.43;100.00
62849;BME280;48941;49.516;8.286;2022-10-26T05:28:21;100348.78;;;12.43;100.00
62849;BME280;48941;49.516;8.286;2022-10-26T05:30:49;100344.41;;;12.42;100.00
62849;BME280;48941;49.516;8.286;2022-10-26T05:33:17;100340.78;;;12.43;100.00
62849;BME280;48941;49.516;8.286;2022-10-26T05:35:45;100342.59;;;12.42;100.00
62849;BME280;48941;49.516;8.286;2022-10-26T05:38:14;100341.59;;;12.43;100.00
62849;BME280;48941;49.516;8.286;2022-10-26T05:40:48;100354.97;;;12.43;100.00
62849;BME280;48941;49.516;8.286;2022-10-26T05:43:18;100354.84;;;12.45;100.00
62849;BME280;48941;49.516;8.286;2022-10-26T05:45:48;100351.31;;;12.44;100.00
62849;BME280;48941;49.516;8.286;2022-10-26T05:48:16;100360.19;;;12.45;100.00
62849;BME280;48941;49.516;8.286;2022-10-26T05:50:44;100356.81;;;12.43;100.00
62849;BME280;48941;49.516;8.286;2022-10-26T05:53:12;100364.94;;;12.41;100.00
62849;BME280;48941;49.516;8.286;2022-10-26T05:55:41;100375.38;;;12.44;100.00
62849;BME280;48941;49.516;8.286;2022-10-26T05:58:12;100373.53;;;12.45;100.00
62849;BME280;48941;49.516;8.286;2022-10-26T06:00:48;100376.22;;;12.45;100.00
62849;BME280;48941;49.516;8.286;2022-10-26T06:03:29;100383.22;;;12.46;100.00
62849;BME280;48941;49.516;8.286;2022-10-26T06:06:00;100391.94;;;12.48;100.00
62849;BME280;48941;49.516;8.286;2022-10-26T06:08:33;100395.47;;;12.48;100.00
62849;BME280;48941;49.516;8.286;2022-10-26T06:11:01;100385.91;;;12.46;100.00
62849;BME280;48941;49.516;8.286;2022-10-26T06:13:31;100384.94;;;12.47;100.00
62849;BME280;48941;49.516;8.286;2022-10-26T06:16:09;100396.44;;;12.47;100.00
62849;BME280;48941;49.516;8.286;2022-10-26T06:18:50;100392.81;;;12.48;100.00
62849;BME280;48941;49.516;8.286;2022-10-26T06:21:37;100398.28;;;12.47;100.00
62849;BME280;48941;49.516;8.286;2022-10-26T06:24:11;100400.13;;;12.46;100.00
62849;BME280;48941;49.516;8.286;2022-10-26T06:26:47;100407.13;;;12.47;100.00
62849;BME280;48941;49.516;8.286;2022-10-26T06:29:30;100402.91;;;12.45;100.00
62849;BME280;48941;49.516;8.286;2022-10-26T06:32:03;100404.75;;;12.44;100.00
62849;BME280;48941;49.516;8.286;2022-10-26T06:34:33;100402.22;;;12.43;100.00
62849;BME280;48941;49.516;8.286;2022-10-26T06:37:03;100403.03;;;12.43;100.00
62849;BME280;48941;49.516;8.286;2022-10-26T06:39:35;100403.03;;;12.43;100.00
62849;BME280;48941;49.516;8.286;2022-10-26T06:42:08;100407.41;;;12.44;100.00
62849;BME280;48941;49.516;8.286;2022-10-26T06:44:39;100408.97;;;12.47;100.00
62849;BME280;48941;49.516;8.286;2022-10-26T06:47:12;100411.63;;;12.47;100.00
62849;BME280;48941;49.516;8.286;2022-10-26T06:49:56;100412.47;;;12.47;100.00
62849;BME280;48941;49.516;8.286;2022-10-26T06:52:30;100407.25;;;12.46;100.00
62849;BME280;48941;49.516;8.286;2022-10-26T06:55:00;100425.97;;;12.46;100.00
62849;BME280;48941;49.516;8.286;2022-10-26T06:57:34;100429.34;;;12.48;100.00
62849;BME280;48941;49.516;8.286;2022-10-26T07:00:12;100431.88;;;12.49;100.00
62849;BME280;48941;49.516;8.286;2022-10-26T07:02:41;100437.09;;;12.51;100.00
62849;BME280;48941;49.516;8.286;2022-10-26T07:05:09;100443.16;;;12.53;100.00
62849;BME280;48941;49.516;8.286;2022-10-26T07:07:40;100446.66;;;12.53;100.00
62849;BME280;48941;49.516;8.286;2022-10-26T07:10:09;100448.97;;;12.58;100.00
62849;BME280;48941;49.516;8.286;2022-10-26T07:12:37;100443.31;;;12.61;100.00
62849;BME280;48941;49.516;8.286;2022-10-26T07:15:07;100443.31;;;12.61;100.00
62849;BME280;48941;49.516;8.286;2022-10-26T07:17:41;100443.19;;;12.63;100.00
62849;BME280;48941;49.516;8.286;2022-10-26T07:20:10;100444.03;;;12.63;100.00
62849;BME280;48941;49.516;8.286;2022-10-26T07:22:38;100447.28;;;12.67;100.00
62849;BME280;48941;49.516;8.286;2022-10-26T07:25:08;100448.00;;;12.69;100.00
62849;BME280;48941;49.516;8.286;2022-10-26T07:27:37;100452.94;;;12.73;100.00
62849;BME280;48941;49.516;8.286;2022-10-26T07:30:08;100458.84;;;12.77;100.00
62849;BME280;48941;49.516;8.286;2022-10-26T07:32:36;100464.91;;;12.79;100.00
62849;BME280;48941;49.516;8.286;2022-10-26T07:35:04;100463.78;;;12.82;100.00
62849;BME280;48941;49.516;8.286;2022-10-26T07:37:32;100467.16;;;12.84;100.00
62849;BME280;48941;49.516;8.286;2022-10-26T07:40:00;100465.19;;;12.86;100.00
62849;BME280;48941;49.516;8.286;2022-10-26T07:42:32;100467.63;;;12.89;100.00
62849;BME280;48941;49.516;8.286;2022-10-26T07:45:00;100478.91;;;12.92;100.00
62849;BME280;48941;49.516;8.286;2022-10-26T07:47:29;100480.44;;;12.95;100.00
62849;BME280;48941;49.516;8.286;2022-10-26T07:49:57;100484.53;;;12.99;100.00
62849;BME280;48941;49.516;8.286;2022-10-26T07:52:24;100481.59;;;13.02;100.00
62849;BME280;48941;49.516;8.286;2022-10-26T07:54:52;100486.53;;;13.07;100.00
62849;BME280;48941;49.516;8.286;2022-10-26T07:57:20;100488.53;;;13.14;100.00
62849;BME280;48941;49.516;8.286;2022-10-26T07:59:48;100488.94;;;13.20;100.00
62849;BME280;48941;49.516;8.286;2022-10-26T08:02:16;100489.25;;;13.26;100.00
62849;BME280;48941;49.516;8.286;2022-10-26T08:04:46;100498.28;;;13.35;100.00
62849;BME280;48941;49.516;8.286;2022-10-26T08:07:13;100505.50;;;13.44;100.00
62849;BME280;48941;49.516;8.286;2022-10-26T08:09:41;100516.22;;;13.54;100.00
62849;BME280;48941;49.516;8.286;2022-10-26T08:12:09;100523.25;;;13.65;100.00
62849;BME280;48941;49.516;8.286;2022-10-26T08:14:39;100513.84;;;13.70;100.00
62849;BME280;48941;49.516;8.286;2022-10-26T08:17:07;100523.16;;;13.76;100.00
62849;BME280;48941;49.516;8.286;2022-10-26T08:19:35;100518.19;;;13.81;100.00
62849;BME280;48941;49.516;8.286;2022-10-26T08:22:05;100518.75;;;13.85;100.00
62849;BME280;48941;49.516;8.286;2022-10-26T08:24:33;100517.34;;;13.90;100.00
62849;BME280;48941;49.516;8.286;2022-10-26T08:27:00;100517.75;;;13.95;100.00
62849;BME280;48941;49.516;8.286;2022-10-26T08:29:28;100517.34;;;14.00;100.00
62849;BME280;48941;49.516;8.286;2022-10-26T08:31:56;100524.81;;;14.06;100.00
62849;BME280;48941;49.516;8.286;2022-10-26T08:34:24;100516.22;;;14.12;100.00
62849;BME280;48941;49.516;8.286;2022-10-26T08:36:52;100516.19;;;14.22;100.00
62849;BME280;48941;49.516;8.286;2022-10-26T08:39:21;100506.59;;;14.29;100.00
62849;BME280;48941;49.516;8.286;2022-10-26T08:41:54;100520.09;;;14.38;100.00
62849;BME280;48941;49.516;8.286;2022-10-26T08:44:25;100516.56;;;14.47;100.00
62849;BME280;48941;49.516;8.286;2022-10-26T08:46:57;100513.16;;;14.54;100.00
62849;BME280;48941;49.516;8.286;2022-10-26T08:49:29;100516.69;;;14.65;100.00
62849;BME280;48941;49.516;8.286;2022-10-26T08:51:59;100523.84;;;14.74;100.00
62849;BME280;48941;49.516;8.286;2022-10-26T08:54:34;100535.25;;;14.86;100.00
62849;BME280;48941;49.516;8.286;2022-10-26T08:57:10;100538.41;;;14.99;100.00
62849;BME280;48941;49.516;8.286;2022-10-26T08:59:43;100546.84;;;15.14;100.00
62849;BME280;48941;49.516;8.286;2022-10-26T09:02:15;100542.63;;;15.29;100.00
62849;BME280;48941;49.516;8.286;2022-10-26T09:04:44;100536.94;;;15.42;100.00
62849;BME280;48941;49.516;8.286;2022-10-26T09:07:23;100534.69;;;15.56;100.00
62849;BME280;48941;49.516;8.286;2022-10-26T09:10:00;100537.03;;;15.68;99.62
62849;BME280;48941;49.516;8.286;2022-10-26T09:12:37;100539.69;;;15.78;98.83
62849;BME280;48941;49.516;8.286;2022-10-26T09:15:13;100537.75;;;15.88;98.65
62849;BME280;48941;49.516;8.286;2022-10-26T09:17:51;100543.88;;;15.99;98.59
62849;BME280;48941;49.516;8.286;2022-10-26T09:20:39;100541.66;;;16.12;97.53
62849;BME280;48941;49.516;8.286;2022-10-26T09:23:20;100538.44;;;16.52;95.24
62849;BME280;48941;49.516;8.286;2022-10-26T09:25:57;100546.44;;;16.70;93.65
62849;BME280;48941;49.516;8.286;2022-10-26T09:28:27;100539.50;;;16.86;91.97
62849;BME280;48941;49.516;8.286;2022-10-26T09:30:58;100530.63;;;16.94;91.24
62849;BME280;48941;49.516;8.286;2022-10-26T09:33:28;100540.25;;;17.04;91.59
62849;BME280;48941;49.516;8.286;2022-10-26T09:36:01;100545.34;;;17.16;90.33
62849;BME280;48941;49.516;8.286;2022-10-26T09:38:31;100543.66;;;17.15;89.81
62849;BME280;48941;49.516;8.286;2022-10-26T09:41:04;100553.06;;;17.10;89.50
62849;BME280;48941;49.516;8.286;2022-10-26T09:43:41;100547.00;;;17.08;90.21
62849;BME280;48941;49.516;8.286;2022-10-26T09:46:14;100552.69;;;17.05;90.87
62849;BME280;48941;49.516;8.286;2022-10-26T09:48:46;100559.25;;;17.03;91.10
62849;BME280;48941;49.516;8.286;2022-10-26T09:51:16;100556.56;;;17.03;91.49
62849;BME280;48941;49.516;8.286;2022-10-26T09:53:44;100563.63;;;17.04;91.93
62849;BME280;48941;49.516;8.286;2022-10-26T09:56:14;100563.41;;;16.97;92.47
62849;BME280;48941;49.516;8.286;2022-10-26T09:58:45;100561.59;;;16.98;92.62
62849;BME280;48941;49.516;8.286;2022-10-26T10:01:21;100568.50;;;17.00;93.06
62849;BME280;48941;49.516;8.286;2022-10-26T10:04:09;100573.06;;;17.08;92.88
62849;BME280;48941;49.516;8.286;2022-10-26T10:06:37;100579.31;;;17.17;92.69
62849;BME280;48941;49.516;8.286;2022-10-26T10:09:06;100577.34;;;17.27;92.12
62849;BME280;48941;49.516;8.286;2022-10-26T10:11:40;100577.59;;;17.42;91.78
62849;BME280;48941;49.516;8.286;2022-10-26T10:14:14;100579.81;;;17.55;91.53
62849;BME280;48941;49.516;8.286;2022-10-26T10:16:52;100588.41;;;17.66;91.25
62849;BME280;48941;49.516;8.286;2022-10-26T10:19:23;100590.81;;;17.78;90.31
62849;BME280;48941;49.516;8.286;2022-10-26T10:21:54;100598.97;;;17.94;90.06
62849;BME280;48941;49.516;8.286;2022-10-26T10:24:26;100610.78;;;18.18;88.50
62849;BME280;48941;49.516;8.286;2022-10-26T10:27:01;100604.72;;;18.32;88.07
62849;BME280;48941;49.516;8.286;2022-10-26T10:29:31;100610.47;;;18.45;87.49
62849;BME280;48941;49.516;8.286;2022-10-26T10:32:00;100607.75;;;18.62;86.88
62849;BME280;48941;49.516;8.286;2022-10-26T10:34:29;100613.50;;;18.83;86.66
62849;BME280;48941;49.516;8.286;2022-10-26T10:36:59;100611.03;;;19.21;84.49
62849;BME280;48941;49.516;8.286;2022-10-26T10:39:37;100610.03;;;19.54;82.56
62849;BME280;48941;49.516;8.286;2022-10-26T10:42:14;100612.53;;;19.72;80.29
62849;BME280;48941;49.516;8.286;2022-10-26T10:44:43;100613.97;;;19.82;81.14
62849;BME280;48941;49.516;8.286;2022-10-26T10:47:20;100618.66;;;19.88;80.28
62849;BME280;48941;49.516;8.286;2022-10-26T10:49:54;100625.16;;;20.02;79.29
62849;BME280;48941;49.516;8.286;2022-10-26T10:52:25;100623.13;;;20.04;78.13
62849;BME280;48941;49.516;8.286;2022-10-26T10:55:03;100625.97;;;20.11;75.24
62849;BME280;48941;49.516;8.286;2022-10-26T10:57:47;100628.28;;;20.14;74.33
62849;BME280;48941;49.516;8.286;2022-10-26T11:00:20;100623.19;;;20.19;74.32
62849;BME280;48941;49.516;8.286;2022-10-26T11:03:03;100633.34;;;20.17;74.08
62849;BME280;48941;49.516;8.286;2022-10-26T11:05:45;100633.16;;;20.19;72.75
62849;BME280;48941;49.516;8.286;2022-10-26T11:08:20;100644.50;;;20.14;73.50
62849;BME280;48941;49.516;8.286;2022-10-26T11:10:52;100641.38;;;20.02;72.95
62849;BME280;48941;49.516;8.286;2022-10-26T11:13:24;100651.91;;;19.97;72.45
62849;BME280;48941;49.516;8.286;2022-10-26T11:15:57;100652.63;;;19.91;73.60
62849;BME280;48941;49.516;8.286;2022-10-26T11:18:30;100650.59;;;19.85;74.02
62849;BME280;48941;49.516;8.286;2022-10-26T11:21:03;100649.31;;;19.73;74.25
62849;BME280;48941;49.516;8.286;2022-10-26T11:23:37;100646.63;;;19.64;74.34
62849;BME280;48941;49.516;8.286;2022-10-26T11:26:11;100651.41;;;19.54;75.51
62849;BME280;48941;49.516;8.286;2022-10-26T11:28:47;100644.50;;;19.52;75.54
62849;BME280;48941;49.516;8.286;2022-10-26T11:31:19;100656.84;;;19.46;76.15
62849;BME280;48941;49.516;8.286;2022-10-26T11:34:00;100661.91;;;19.41;76.98
62849;BME280;48941;49.516;8.286;2022-10-26T11:36:32;100660.41;;;19.38;77.53
62849;BME280;48941;49.516;8.286;2022-10-26T11:39:09;100660.78;;;19.35;78.10
62849;BME280;48941;49.516;8.286;2022-10-26T11:41:46;100659.56;;;19.38;77.78
62849;BME280;48941;49.516;8.286;2022-10-26T11:44:21;100650.28;;;19.40;77.80
62849;BME280;48941;49.516;8.286;2022-10-26T11:46:54;100651.31;;;19.39;77.93
62849;BME280;48941;49.516;8.286;2022-10-26T11:49:27;100662.09;;;19.39;76.87
62849;BME280;48941;49.516;8.286;2022-10-26T11:52:04;100664.81;;;19.39;75.73
62849;BME280;48941;49.516;8.286;2022-10-26T11:54:39;100661.06;;;19.40;75.17
62849;BME280;48941;49.516;8.286;2022-10-26T11:57:11;100660.53;;;19.45;75.13
62849;BME280;48941;49.516;8.286;2022-10-26T11:59:43;100663.25;;;19.45;75.29
62849;BME280;48941;49.516;8.286;2022-10-26T12:02:15;100656.84;;;19.46;74.39
62849;BME280;48941;49.516;8.286;2022-10-26T12:04:47;100661.56;;;19.44;74.41
62849;BME280;48941;49.516;8.286;2022-10-26T12:07:21;100662.25;;;19.46;74.66
62849;BME280;48941;49.516;8.286;2022-10-26T12:09:51;100662.25;;;19.46;74.51
62849;BME280;48941;49.516;8.286;2022-10-26T12:12:25;100656.47;;;19.57;73.48
62849;BME280;48941;49.516;8.286;2022-10-26T12:15:15;100657.25;;;19.74;73.71
62849;BME280;48941;49.516;8.286;2022-10-26T12:17:46;100660.22;;;19.87;73.62
62849;BME280;48941;49.516;8.286;2022-10-26T12:20:42;100662.41;;;19.92;73.42
62849;BME280;48941;49.516;8.286;2022-10-26T12:23:16;100671.00;;;19.96;73.13
62849;BME280;48941;49.516;8.286;2022-10-26T12:29:30;100666.88;;;20.08;71.46
62849;BME280;48941;49.516;8.286;2022-10-26T12:32:03;100673.25;;;20.15;71.16
62849;BME280;48941;49.516;8.286;2022-10-26T12:35:01;100665.75;;;20.25;70.97
62849;BME280;48941;49.516;8.286;2022-10-26T12:37:35;100673.63;;;20.35;70.18
62849;BME280;48941;49.516;8.286;2022-10-26T12:40:38;100685.16;;;20.52;69.30
62849;BME280;48941;49.516;8.286;2022-10-26T12:43:35;100685.63;;;20.79;68.15
62849;BME280;48941;49.516;8.286;2022-10-26T12:52:43;100674.91;;;22.04;61.86
62849;BME280;48941;49.516;8.286;2022-10-26T13:02:02;100685.03;;;22.97;58.24
62849;BME280;48941;49.516;8.286;2022-10-26T13:07:35;100695.69;;;23.61;55.43
62849;BME280;48941;49.516;8.286;2022-10-26T13:10:17;100700.00;;;23.77;55.50
62849;BME280;48941;49.516;8.286;2022-10-26T13:12:49;100688.38;;;24.10;54.49
62849;BME280;48941;49.516;8.286;2022-10-26T13:15:23;100688.84;;;24.20;53.66
62849;BME280;48941;49.516;8.286;2022-10-26T13:17:57;100689.06;;;24.19;52.75
62849;BME280;48941;49.516;8.286;2022-10-26T13:20:27;100690.28;;;24.16;56.26
62849;BME280;48941;49.516;8.286;2022-10-26T13:22:56;100689.25;;;24.24;58.57
62849;BME280;48941;49.516;8.286;2022-10-26T13:25:27;100682.16;;;24.36;57.47
62849;BME280;48941;49.516;8.286;2022-10-26T13:28:04;100690.16;;;24.44;57.79
62849;BME280;48941;49.516;8.286;2022-10-26T13:30:47;100689.13;;;24.52;57.40